createdAt,value
2022-12-20T00:01:28.692Z,32.40
2022-12-20T00:04:00.037Z,32.23
2022-12-20T00:06:28.236Z,32.33
2022-12-20T00:08:57.921Z,31.20
2022-12-20T00:11:26.248Z,31.50
2022-12-20T00:13:56.221Z,32.60
2022-12-20T00:16:25.810Z,32.57
2022-12-20T00:18:56.847Z,31.37
2022-12-20T00:21:26.426Z,31.63
2022-12-20T00:23:55.129Z,31.17
2022-12-20T00:26:24.850Z,30.43
2022-12-20T00:28:55.881Z,32.50
2022-12-20T00:31:25.451Z,32.63
2022-12-20T00:33:55.502Z,31.27
2022-12-20T00:36:24.830Z,32.60
2022-12-20T00:38:54.716Z,32.43
2022-12-20T00:41:25.230Z,33.00
2022-12-20T00:43:55.265Z,33.57
2022-12-20T00:46:24.746Z,34.23
2022-12-20T00:48:53.210Z,34.30
2022-12-20T00:51:22.771Z,33.73
2022-12-20T00:53:51.353Z,35.60
2022-12-20T00:56:19.698Z,34.50
2022-12-20T00:58:48.235Z,34.60
2022-12-20T01:01:21.658Z,33.83
2022-12-20T01:03:50.700Z,35.37
2022-12-20T01:06:22.015Z,35.20
2022-12-20T01:08:50.228Z,35.00
2022-12-20T01:11:20.391Z,32.37
2022-12-20T01:13:53.576Z,33.00
2022-12-20T01:16:26.153Z,33.17
2022-12-20T01:18:54.921Z,32.67
2022-12-20T01:21:27.776Z,33.83
2022-12-20T01:23:56.332Z,32.90
2022-12-20T01:26:27.290Z,32.07
2022-12-20T01:28:57.150Z,32.80
2022-12-20T01:31:30.643Z,32.63
2022-12-20T01:33:59.480Z,31.00
2022-12-20T01:36:30.427Z,31.57
2022-12-20T01:38:59.273Z,31.03
2022-12-20T01:41:31.007Z,31.33
2022-12-20T01:44:01.380Z,31.47
2022-12-20T01:46:33.731Z,30.87
2022-12-20T01:49:06.848Z,31.60
2022-12-20T01:51:39.440Z,30.40
2022-12-20T01:54:13.066Z,30.70
2022-12-20T01:56:45.126Z,31.17
2022-12-20T01:59:15.151Z,31.20
2022-12-20T02:01:45.125Z,31.20
2022-12-20T02:04:13.550Z,31.30
2022-12-20T02:06:41.943Z,30.57
2022-12-20T02:09:10.478Z,30.67
2022-12-20T02:11:58.253Z,29.80
2022-12-20T02:14:37.250Z,32.03
2022-12-20T02:17:14.227Z,31.20
2022-12-20T02:19:59.919Z,30.03
2022-12-20T02:22:34.848Z,32.13
2022-12-20T02:25:38.610Z,30.37
2022-12-20T02:28:16.601Z,30.33
2022-12-20T02:30:48.756Z,29.73
2022-12-20T02:33:16.834Z,31.60
2022-12-20T02:35:44.915Z,32.03
2022-12-20T02:38:28.280Z,30.83
2022-12-20T02:41:03.791Z,32.40
2022-12-20T02:43:51.136Z,29.90
2022-12-20T02:46:22.164Z,30.13
2022-12-20T02:48:52.255Z,30.63
2022-12-20T02:51:23.130Z,30.07
2022-12-20T02:53:51.627Z,30.80
2022-12-20T02:56:24.072Z,31.10
2022-12-20T02:58:56.300Z,31.47
2022-12-20T03:01:31.921Z,31.53
2022-12-20T03:04:01.817Z,30.20
2022-12-20T03:06:30.725Z,31.53
2022-12-20T03:08:59.477Z,30.67
2022-12-20T03:11:27.591Z,31.00
2022-12-20T03:13:56.378Z,31.13
2022-12-20T03:16:25.917Z,30.33
2022-12-20T03:18:53.963Z,29.87
2022-12-20T03:21:22.051Z,31.73
2022-12-20T03:23:50.122Z,31.00
2022-12-20T03:26:18.410Z,30.53
2022-12-20T03:28:46.550Z,29.80
2022-12-20T03:31:14.645Z,29.57
2022-12-20T03:33:44.154Z,30.10
2022-12-20T03:36:12.218Z,30.33
2022-12-20T03:38:43.675Z,30.90
2022-12-20T03:41:11.723Z,32.07
2022-12-20T03:43:39.752Z,30.87
2022-12-20T03:46:07.878Z,30.93
2022-12-20T03:48:36.194Z,31.80
2022-12-20T03:51:06.009Z,31.43
2022-12-20T03:53:34.444Z,30.13
2022-12-20T03:56:02.431Z,31.47
2022-12-20T03:58:30.519Z,32.27
2022-12-20T04:00:58.842Z,31.23
2022-12-20T04:03:27.141Z,31.20
2022-12-20T04:05:55.254Z,31.00
2022-12-20T04:08:24.765Z,31.73
2022-12-20T04:11:10.192Z,31.87
2022-12-20T04:13:39.298Z,30.13
2022-12-20T04:16:07.765Z,30.10
2022-12-20T04:18:35.768Z,31.67
2022-12-20T04:21:04.741Z,32.10
2022-12-20T04:23:35.209Z,31.80
2022-12-20T04:26:03.745Z,32.27
2022-12-20T04:28:32.276Z,31.00
2022-12-20T04:31:00.929Z,32.30
2022-12-20T04:33:29.826Z,30.53
2022-12-20T04:35:59.209Z,29.33
2022-12-20T04:38:27.628Z,30.17
2022-12-20T04:40:57.340Z,28.90
2022-12-20T04:43:25.811Z,30.40
2022-12-20T04:45:57.192Z,30.70
2022-12-20T04:51:15.899Z,30.33
2022-12-20T04:53:48.573Z,29.70
2022-12-20T04:56:20.211Z,29.60
2022-12-20T04:58:50.705Z,30.50
2022-12-20T05:01:19.783Z,30.53
2022-12-20T05:03:48.132Z,30.37
2022-12-20T05:06:16.899Z,31.33
2022-12-20T05:08:44.995Z,30.10
2022-12-20T05:11:13.962Z,30.20
2022-12-20T05:13:43.530Z,29.50
2022-12-20T05:16:11.817Z,29.53
2022-12-20T05:18:46.446Z,30.17
2022-12-20T05:21:34.265Z,30.67
2022-12-20T05:24:19.651Z,31.87
2022-12-20T05:26:47.833Z,31.47
2022-12-20T05:29:17.830Z,30.53
2022-12-20T05:31:49.732Z,33.00
2022-12-20T05:34:17.991Z,32.73
2022-12-20T05:36:46.169Z,32.23
2022-12-20T05:39:14.723Z,31.63
2022-12-20T05:41:42.828Z,31.40
2022-12-20T05:44:12.915Z,31.10
2022-12-20T05:46:42.549Z,31.47
2022-12-20T05:49:10.581Z,33.23
2022-12-20T05:51:38.634Z,32.50
2022-12-20T05:54:06.983Z,31.30
2022-12-20T05:56:38.111Z,33.83
2022-12-20T05:59:06.345Z,33.13
2022-12-20T06:01:34.695Z,36.77
2022-12-20T06:04:04.279Z,37.57
2022-12-20T06:06:32.733Z,36.87
2022-12-20T06:09:02.016Z,34.10
2022-12-20T06:11:30.686Z,30.37
2022-12-20T06:13:59.311Z,30.23
2022-12-20T06:16:28.598Z,30.97
2022-12-20T06:18:56.925Z,30.80
2022-12-20T06:21:31.779Z,30.83
2022-12-20T06:24:01.573Z,32.30
2022-12-20T06:26:36.029Z,32.33
2022-12-20T06:29:07.094Z,31.17
2022-12-20T06:31:35.645Z,33.00
2022-12-20T06:34:03.833Z,31.17
2022-12-20T06:36:33.247Z,31.57
2022-12-20T06:39:04.659Z,31.13
2022-12-20T06:41:38.371Z,31.30
2022-12-20T06:44:06.644Z,31.03
2022-12-20T06:46:34.933Z,31.53
2022-12-20T06:49:03.009Z,30.83
2022-12-20T06:51:32.525Z,31.10
2022-12-20T06:54:00.777Z,31.03
2022-12-20T06:56:28.823Z,29.33
2022-12-20T06:58:56.852Z,29.77
2022-12-20T07:01:25.079Z,28.93
2022-12-20T07:03:53.252Z,28.70
2022-12-20T07:06:22.588Z,28.77
2022-12-20T07:08:52.094Z,29.87
2022-12-20T07:11:20.188Z,29.90
2022-12-20T07:13:48.417Z,30.50
2022-12-20T07:16:16.477Z,30.37
2022-12-20T07:18:44.902Z,30.33
2022-12-20T07:21:16.739Z,29.57
2022-12-20T07:23:44.801Z,30.87
2022-12-20T07:26:15.405Z,28.50
2022-12-20T07:28:44.835Z,28.30
2022-12-20T07:31:13.460Z,28.93
2022-12-20T07:33:41.491Z,26.53
2022-12-20T07:36:12.924Z,27.47
2022-12-20T07:38:41.362Z,26.63
2022-12-20T07:41:10.246Z,27.30
2022-12-20T07:43:40.405Z,27.10
2022-12-20T07:46:09.777Z,27.93
2022-12-20T07:48:37.854Z,27.27
2022-12-20T07:51:09.765Z,28.40
2022-12-20T07:53:41.701Z,27.07
2022-12-20T07:56:11.560Z,26.57
2022-12-20T07:58:44.264Z,27.23
2022-12-20T08:01:13.843Z,27.87
2022-12-20T08:03:47.319Z,26.30
2022-12-20T08:06:16.635Z,27.33
2022-12-20T08:08:48.930Z,26.67
2022-12-20T08:11:18.160Z,26.53
2022-12-20T08:13:51.484Z,24.97
2022-12-20T08:16:22.195Z,25.17
2022-12-20T08:18:50.347Z,25.17
2022-12-20T08:21:19.126Z,25.07
2022-12-20T08:23:47.724Z,25.90
2022-12-20T08:26:16.128Z,26.37
2022-12-20T08:28:44.137Z,24.57
2022-12-20T08:31:13.886Z,25.73
2022-12-20T08:33:42.443Z,25.10
2022-12-20T08:36:14.884Z,24.70
2022-12-20T08:38:43.187Z,25.37
2022-12-20T08:41:14.995Z,24.53
2022-12-20T08:43:43.818Z,24.63
2022-12-20T08:46:14.384Z,24.60
2022-12-20T08:48:42.455Z,25.00
2022-12-20T08:51:15.160Z,23.77
2022-12-20T08:53:43.200Z,25.10
2022-12-20T08:56:13.530Z,24.27
2022-12-20T08:58:43.100Z,26.17
2022-12-20T09:01:14.989Z,24.80
2022-12-20T09:03:43.488Z,25.83
2022-12-20T09:06:13.325Z,23.33
2022-12-20T09:08:42.051Z,24.30
2022-12-20T09:11:13.074Z,24.60
2022-12-20T09:13:44.370Z,23.93
2022-12-20T09:16:16.068Z,24.67
2022-12-20T09:18:44.613Z,26.33
2022-12-20T09:21:13.173Z,26.67
2022-12-20T09:23:41.268Z,25.17
2022-12-20T09:26:12.984Z,26.77
2022-12-20T09:28:44.858Z,25.90
2022-12-20T09:31:16.287Z,26.90
2022-12-20T09:33:44.925Z,26.97
2022-12-20T09:36:13.669Z,25.80
2022-12-20T09:38:42.093Z,24.07
2022-12-20T09:41:22.875Z,25.07
2022-12-20T09:43:52.022Z,25.13
2022-12-20T09:46:21.635Z,25.80
2022-12-20T09:48:50.259Z,26.37
2022-12-20T09:51:31.556Z,23.97
2022-12-20T09:54:07.574Z,23.73
2022-12-20T09:56:44.175Z,24.70
2022-12-20T09:59:14.441Z,24.67
2022-12-20T10:01:47.541Z,25.70
2022-12-20T10:04:21.991Z,24.13
2022-12-20T10:07:01.026Z,25.53
2022-12-20T10:09:58.844Z,24.90
2022-12-20T10:12:38.773Z,27.03
2022-12-20T10:15:19.334Z,25.47
2022-12-20T10:18:19.682Z,25.63
2022-12-20T10:20:58.206Z,25.40
2022-12-20T10:23:33.526Z,23.77
2022-12-20T10:26:04.622Z,23.13
2022-12-20T10:28:36.154Z,21.77
2022-12-20T10:31:06.358Z,20.57
2022-12-20T10:33:36.502Z,20.40
2022-12-20T10:36:23.458Z,19.97
2022-12-20T10:38:54.119Z,19.50
2022-12-20T10:41:24.765Z,19.83
2022-12-20T10:43:57.994Z,23.10
2022-12-20T10:46:38.366Z,21.20
2022-12-20T10:49:28.775Z,20.23
2022-12-20T10:51:58.798Z,19.93
2022-12-20T10:54:32.116Z,21.30
2022-12-20T10:57:03.111Z,20.80
2022-12-20T10:59:35.558Z,22.17
2022-12-20T11:02:04.948Z,22.77
2022-12-20T11:04:37.033Z,28.37
2022-12-20T11:07:25.985Z,21.97
2022-12-20T11:09:59.191Z,22.57
2022-12-20T11:12:27.374Z,23.23
2022-12-20T11:15:10.680Z,23.53
2022-12-20T11:17:42.947Z,24.83
2022-12-20T11:20:29.058Z,25.33
2022-12-20T11:23:07.766Z,25.33
2022-12-20T11:25:53.708Z,24.33
2022-12-20T11:28:41.939Z,24.93
2022-12-20T11:31:17.325Z,24.47
2022-12-20T11:34:03.371Z,25.20
2022-12-20T11:36:47.387Z,26.30
2022-12-20T11:39:25.378Z,26.30
2022-12-20T11:42:04.810Z,26.53
2022-12-20T11:44:56.360Z,27.60
2022-12-20T11:48:08.988Z,27.23
2022-12-20T11:50:50.550Z,27.53
2022-12-20T11:53:24.275Z,26.40
2022-12-20T11:55:55.590Z,26.67
2022-12-20T11:58:29.497Z,26.47
2022-12-20T12:01:02.162Z,27.23
2022-12-20T12:03:34.869Z,25.87
2022-12-20T12:06:06.913Z,25.77
2022-12-20T12:08:42.653Z,27.70
2022-12-20T12:11:55.797Z,28.27
2022-12-20T12:14:07.316Z,27.63
2022-12-20T12:16:38.605Z,28.93
2022-12-20T12:19:11.411Z,29.83
2022-12-20T12:21:45.122Z,26.83
2022-12-20T12:24:25.998Z,29.30
2022-12-20T12:26:55.438Z,28.60
2022-12-20T12:29:25.422Z,28.57
2022-12-20T12:31:59.166Z,29.50
2022-12-20T12:34:40.733Z,29.10
2022-12-20T12:37:32.376Z,31.17
2022-12-20T12:40:47.377Z,30.00
2022-12-20T12:43:51.098Z,28.73
2022-12-20T12:46:26.344Z,29.70
2022-12-20T12:49:00.229Z,32.40
2022-12-20T12:51:32.926Z,30.20
2022-12-20T12:54:17.763Z,31.47
2022-12-20T12:56:47.651Z,31.73
2022-12-20T12:59:41.176Z,32.77
2022-12-20T13:02:35.998Z,31.87
2022-12-20T13:05:35.791Z,31.80
2022-12-20T13:08:04.849Z,30.47
2022-12-20T13:10:59.556Z,31.37
2022-12-20T13:13:28.221Z,32.93
2022-12-20T13:16:12.778Z,32.80
2022-12-20T13:19:12.382Z,32.97
2022-12-20T13:21:43.150Z,33.57
2022-12-20T13:24:41.128Z,31.90
2022-12-20T13:27:30.919Z,32.37
2022-12-20T13:30:28.019Z,33.03
2022-12-20T13:33:12.730Z,32.83
2022-12-20T13:36:04.514Z,33.33
2022-12-20T13:38:55.611Z,32.77
2022-12-20T13:41:39.747Z,31.67
2022-12-20T13:44:25.543Z,31.80
2022-12-20T13:46:59.731Z,32.90
2022-12-20T13:49:30.813Z,33.27
2022-12-20T13:52:18.107Z,33.20
2022-12-20T13:54:48.816Z,32.33
2022-12-20T13:57:22.761Z,31.00
2022-12-20T14:00:03.533Z,31.07
2022-12-20T14:02:37.497Z,32.77
2022-12-20T14:05:10.245Z,33.13
2022-12-20T14:07:43.077Z,32.57
2022-12-20T14:10:22.113Z,30.47
2022-12-20T14:12:52.152Z,33.73
2022-12-20T14:15:24.165Z,34.63
2022-12-20T14:17:52.819Z,34.70
2022-12-20T14:20:30.275Z,35.77
2022-12-20T14:23:06.556Z,34.20
2022-12-20T14:25:39.893Z,34.30
2022-12-20T14:28:26.813Z,39.57
2022-12-20T14:30:56.558Z,36.17
2022-12-20T14:33:30.987Z,34.63
2022-12-20T14:36:08.472Z,33.63
2022-12-20T14:38:38.689Z,32.13
2022-12-20T14:41:28.828Z,33.20
2022-12-20T14:43:57.931Z,32.43
2022-12-20T14:46:26.100Z,33.63
2022-12-20T14:49:11.231Z,34.43
2022-12-20T14:51:43.165Z,34.13
2022-12-20T14:54:47.774Z,33.60
2022-12-20T14:57:12.839Z,35.93
2022-12-20T14:59:41.569Z,34.10
2022-12-20T15:02:40.356Z,36.27
2022-12-20T15:05:10.920Z,33.47
2022-12-20T15:07:44.026Z,34.13
2022-12-20T15:10:15.329Z,34.03
2022-12-20T15:12:44.197Z,34.53
2022-12-20T15:15:28.933Z,34.10
2022-12-20T15:17:57.827Z,34.07
2022-12-20T15:20:26.389Z,35.13
2022-12-20T15:22:54.545Z,33.47
2022-12-20T15:25:23.997Z,33.33
2022-12-20T15:27:52.332Z,34.57
2022-12-20T15:30:22.792Z,33.53
2022-12-20T15:32:55.707Z,32.77
2022-12-20T15:35:24.930Z,34.03
2022-12-20T15:37:53.034Z,31.40
2022-12-20T15:40:21.104Z,32.73
2022-12-20T15:42:50.484Z,31.77
2022-12-20T15:45:19.265Z,32.87
2022-12-20T15:47:47.337Z,34.37
2022-12-20T15:50:15.580Z,36.00
2022-12-20T15:52:44.350Z,34.03
2022-12-20T15:55:12.484Z,34.40
2022-12-20T15:57:40.880Z,34.30
2022-12-20T16:00:13.723Z,35.03
2022-12-20T16:02:41.974Z,35.57
2022-12-20T16:05:14.339Z,42.55
2022-12-20T16:07:42.794Z,40.67
2022-12-20T16:10:15.385Z,37.07
2022-12-20T16:12:43.641Z,36.13
2022-12-20T16:15:21.541Z,36.33
2022-12-20T16:17:50.183Z,37.23
2022-12-20T16:20:19.378Z,37.03
2022-12-20T16:22:47.536Z,38.03
2022-12-20T16:25:31.056Z,38.90
2022-12-20T16:27:59.931Z,37.83
2022-12-20T16:30:29.827Z,37.00
2022-12-20T16:32:59.650Z,37.80
2022-12-20T16:35:31.089Z,38.77
2022-12-20T16:38:05.614Z,39.97
2022-12-20T16:40:34.563Z,37.97
2022-12-20T16:43:02.659Z,38.37
2022-12-20T16:45:34.425Z,38.33
2022-12-20T16:48:03.762Z,38.10
2022-12-20T16:50:32.179Z,38.27
2022-12-20T16:53:00.318Z,37.33
2022-12-20T16:55:32.171Z,36.67
2022-12-20T16:58:04.207Z,38.53
2022-12-20T17:00:34.155Z,39.03
2022-12-20T17:03:02.397Z,37.60
2022-12-20T17:05:32.647Z,37.70
2022-12-20T17:08:00.732Z,35.83
2022-12-20T17:10:31.681Z,37.20
2022-12-20T17:13:00.222Z,36.27
2022-12-20T17:15:32.343Z,36.07
2022-12-20T17:18:01.793Z,36.87
2022-12-20T17:20:35.018Z,36.47
2022-12-20T17:23:05.355Z,36.00
2022-12-20T17:25:37.076Z,37.43
2022-12-20T17:28:06.267Z,38.07
2022-12-20T17:30:34.396Z,37.90
2022-12-20T17:33:03.910Z,38.43
2022-12-20T17:35:37.996Z,37.50
2022-12-20T17:38:07.647Z,37.47
2022-12-20T17:40:35.734Z,36.80
2022-12-20T17:43:03.777Z,37.63
2022-12-20T17:45:36.133Z,38.07
2022-12-20T17:48:08.245Z,38.20
2022-12-20T17:50:36.311Z,38.83
2022-12-20T17:53:04.353Z,38.43
2022-12-20T17:55:32.681Z,36.70
2022-12-20T17:58:00.715Z,37.13
2022-12-20T18:00:38.551Z,36.07
2022-12-20T18:03:30.135Z,38.47
2022-12-20T18:06:05.713Z,39.50
2022-12-20T18:08:35.993Z,38.60
2022-12-20T18:11:04.375Z,39.03
2022-12-20T18:13:32.435Z,39.37
2022-12-20T18:16:00.547Z,40.27
2022-12-20T18:18:35.175Z,40.77
2022-12-20T18:21:06.781Z,41.77
2022-12-20T18:23:35.679Z,40.93
2022-12-20T18:26:12.534Z,40.73
2022-12-20T18:28:42.723Z,39.40
2022-12-20T18:31:13.437Z,40.50
2022-12-20T18:33:42.895Z,40.27
2022-12-20T18:36:14.446Z,41.20
2022-12-20T18:38:45.295Z,40.27
2022-12-20T18:41:16.033Z,42.70
2022-12-20T18:43:46.309Z,43.60
2022-12-20T18:46:16.139Z,41.60
2022-12-20T18:48:46.033Z,39.20
2022-12-20T18:51:16.870Z,39.63
2022-12-20T18:53:47.340Z,40.40
2022-12-20T18:56:17.570Z,122.83
2022-12-20T18:58:49.663Z,61.63
2022-12-20T19:01:20.378Z,43.10
2022-12-20T19:03:50.003Z,41.00
2022-12-20T19:06:18.985Z,37.90
2022-12-20T19:08:47.565Z,35.63
2022-12-20T19:11:18.183Z,36.87
2022-12-20T19:13:46.901Z,38.23
2022-12-20T19:16:16.836Z,37.97
2022-12-20T19:18:45.697Z,41.40
2022-12-20T19:21:17.014Z,41.37
2022-12-20T19:23:46.922Z,41.83
2022-12-20T19:26:16.518Z,39.83
2022-12-20T19:28:45.359Z,39.43
2022-12-20T19:31:21.483Z,38.80
2022-12-20T19:33:51.104Z,40.40
2022-12-20T19:36:23.065Z,40.00
2022-12-20T19:38:53.029Z,39.13
2022-12-20T19:41:21.923Z,39.70
2022-12-20T19:43:51.782Z,39.30
2022-12-20T19:46:28.057Z,38.03
2022-12-20T19:48:58.547Z,37.90
2022-12-20T19:51:29.137Z,37.33
2022-12-20T19:53:58.935Z,36.23
2022-12-20T19:56:30.311Z,37.47
2022-12-20T19:58:58.539Z,37.40
2022-12-20T20:01:28.080Z,37.70
2022-12-20T20:03:57.934Z,37.37
2022-12-20T20:06:29.325Z,38.83
2022-12-20T20:08:59.792Z,39.17
2022-12-20T20:11:29.134Z,38.50
2022-12-20T20:13:57.458Z,38.60
2022-12-20T20:16:26.180Z,39.17
2022-12-20T20:18:54.925Z,39.53
2022-12-20T20:21:24.578Z,37.40
2022-12-20T20:23:55.405Z,39.37
2022-12-20T20:26:25.908Z,39.27
2022-12-20T20:28:54.470Z,38.97
2022-12-20T20:31:23.727Z,37.97
2022-12-20T20:33:52.099Z,38.67
2022-12-20T20:36:22.191Z,37.57
2022-12-20T20:38:53.355Z,37.10
2022-12-20T20:41:22.822Z,39.43
2022-12-20T20:43:51.291Z,36.93
2022-12-20T20:46:19.553Z,38.67
2022-12-20T20:48:47.893Z,38.10
2022-12-20T20:51:16.189Z,37.93
2022-12-20T20:53:44.778Z,36.73
2022-12-20T20:56:14.331Z,38.70
2022-12-20T20:58:42.492Z,35.50
2022-12-20T21:01:11.548Z,37.30
2022-12-20T21:03:40.472Z,37.37
2022-12-20T21:09:01.177Z,36.97
2022-12-20T21:11:30.800Z,37.33
2022-12-20T21:13:58.946Z,37.20
2022-12-20T21:16:27.579Z,36.27
2022-12-20T21:18:57.877Z,36.40
2022-12-20T21:21:27.300Z,37.37
2022-12-20T21:23:56.225Z,36.97
2022-12-20T21:26:25.434Z,36.97
2022-12-20T21:28:59.136Z,37.33
2022-12-20T21:31:27.245Z,37.47
2022-12-20T21:33:56.694Z,37.17
2022-12-20T21:36:25.405Z,37.10
2022-12-20T21:38:55.197Z,37.63
2022-12-20T21:41:26.751Z,35.70
2022-12-20T21:43:57.691Z,36.33
2022-12-20T21:46:28.711Z,36.20
2022-12-20T21:48:57.059Z,36.67
2022-12-20T21:51:26.670Z,37.47
2022-12-20T21:53:56.215Z,35.80
2022-12-20T21:56:25.419Z,35.63
2022-12-20T21:58:54.135Z,34.17
2022-12-20T22:01:24.017Z,34.73
2022-12-20T22:03:57.775Z,34.10
2022-12-20T22:06:27.988Z,36.43
2022-12-20T22:08:57.713Z,34.70
2022-12-20T22:11:26.297Z,44.40
2022-12-20T22:13:56.535Z,63.53
2022-12-20T22:16:26.825Z,40.93
2022-12-20T22:18:57.610Z,37.13
2022-12-20T22:21:27.999Z,40.37
2022-12-20T22:23:56.945Z,36.40
2022-12-20T22:26:26.879Z,36.50
2022-12-20T22:28:56.589Z,36.53
2022-12-20T22:31:25.996Z,35.70
2022-12-20T22:33:58.207Z,36.17
2022-12-20T22:36:26.760Z,34.37
2022-12-20T22:38:56.546Z,35.60
2022-12-20T22:41:26.695Z,35.47
2022-12-20T22:43:55.766Z,35.23
2022-12-20T22:46:23.995Z,35.67
2022-12-20T22:48:53.150Z,34.53
2022-12-20T22:51:24.829Z,34.70
2022-12-20T22:53:53.090Z,33.90
2022-12-20T22:56:21.705Z,33.17
2022-12-20T22:58:50.424Z,33.63
2022-12-20T23:01:21.619Z,33.03
2022-12-20T23:03:50.786Z,33.40
2022-12-20T23:06:21.554Z,32.73
2022-12-20T23:08:50.939Z,32.73
2022-12-20T23:11:39.220Z,32.73
2022-12-20T23:14:28.072Z,32.77
2022-12-20T23:16:56.164Z,33.30
2022-12-20T23:19:24.248Z,33.70
2022-12-20T23:22:10.171Z,33.50
2022-12-20T23:24:39.562Z,32.53
2022-12-20T23:27:07.845Z,32.93
2022-12-20T23:29:37.219Z,32.60
2022-12-20T23:32:05.238Z,34.27
2022-12-20T23:34:33.614Z,33.33
2022-12-20T23:37:01.635Z,33.13
2022-12-20T23:39:29.721Z,32.43
2022-12-20T23:41:59.204Z,33.00
2022-12-20T23:44:27.363Z,33.27
2022-12-20T23:46:55.613Z,31.43
2022-12-20T23:49:23.712Z,32.73
2022-12-20T23:51:51.711Z,33.00
2022-12-20T23:54:21.449Z,32.40
2022-12-20T23:56:49.657Z,32.10
2022-12-20T23:59:19.864Z,30.80
